createdAt,value
2018-09-10T00:00:44.696Z,6.90
2018-09-10T00:03:13.800Z,6.07
2018-09-10T00:05:43.036Z,6.10
2018-09-10T00:08:12.654Z,6.30
2018-09-10T00:10:41.626Z,6.53
2018-09-10T00:13:10.580Z,5.93
2018-09-10T00:15:39.583Z,6.93
2018-09-10T00:18:08.469Z,7.57
2018-09-10T00:20:37.439Z,6.30
2018-09-10T00:23:06.388Z,6.70
2018-09-10T00:25:35.690Z,6.87
2018-09-10T00:28:04.658Z,6.00
2018-09-10T00:30:33.586Z,6.07
2018-09-10T00:33:02.562Z,6.90
2018-09-10T00:35:31.555Z,5.77
2018-09-10T00:38:00.558Z,7.10
2018-09-10T00:40:29.446Z,6.30
2018-09-10T00:42:58.405Z,7.90
2018-09-10T00:45:27.346Z,7.63
2018-09-10T00:47:56.424Z,6.93
2018-09-10T00:50:25.385Z,7.17
2018-09-10T00:52:54.335Z,7.90
2018-09-10T00:55:24.061Z,6.87
2018-09-10T00:57:53.580Z,7.37
2018-09-10T01:00:22.579Z,6.47
2018-09-10T01:02:51.551Z,7.47
2018-09-10T01:05:20.541Z,6.40
2018-09-10T01:07:49.505Z,6.63
2018-09-10T01:10:18.563Z,6.90
2018-09-10T01:12:47.523Z,6.37
2018-09-10T01:15:16.677Z,6.30
2018-09-10T01:17:45.602Z,6.80
2018-09-10T01:20:14.549Z,6.67
2018-09-10T01:22:43.465Z,5.93
2018-09-10T01:25:12.420Z,5.63
2018-09-10T01:27:41.415Z,5.57
2018-09-10T01:30:10.374Z,6.40
2018-09-10T01:32:39.289Z,6.10
2018-09-10T01:35:08.325Z,6.50
2018-09-10T01:37:37.286Z,6.33
2018-09-10T01:40:06.210Z,5.77
2018-09-10T01:42:35.149Z,5.90
2018-09-10T01:45:04.105Z,6.27
2018-09-10T01:47:33.378Z,5.80
2018-09-10T01:50:02.318Z,6.10
2018-09-10T01:52:31.276Z,6.70
2018-09-10T01:55:00.212Z,5.77
2018-09-10T01:57:29.145Z,5.70
2018-09-10T01:59:58.239Z,6.00
2018-09-10T02:02:27.162Z,6.00
2018-09-10T02:04:56.127Z,6.00
2018-09-10T02:07:25.091Z,5.77
2018-09-10T02:09:54.023Z,5.37
2018-09-10T02:12:23.839Z,5.03
2018-09-10T02:14:53.530Z,5.90
2018-09-10T02:17:22.604Z,5.53
2018-09-10T02:19:51.550Z,5.73
2018-09-10T02:22:20.808Z,5.40
2018-09-10T02:24:49.765Z,6.13
2018-09-10T02:27:18.694Z,5.50
2018-09-10T02:29:47.710Z,5.93
2018-09-10T02:32:16.695Z,5.87
2018-09-10T02:34:45.654Z,5.30
2018-09-10T02:37:14.572Z,5.40
2018-09-10T02:39:43.526Z,5.13
2018-09-10T02:42:12.469Z,5.67
2018-09-10T02:44:42.202Z,5.80
2018-09-10T02:47:11.105Z,6.23
2018-09-10T02:49:40.086Z,5.60
2018-09-10T02:52:09.009Z,6.63
2018-09-10T02:54:37.935Z,5.10
2018-09-10T02:57:06.930Z,4.87
2018-09-10T02:59:35.917Z,5.40
2018-09-10T03:02:04.863Z,5.27
2018-09-10T03:04:33.868Z,5.27
2018-09-10T03:07:02.821Z,5.13
2018-09-10T03:09:31.771Z,5.47
2018-09-10T03:12:00.734Z,4.90
2018-09-10T03:14:29.678Z,5.33
2018-09-10T03:16:58.585Z,5.17
2018-09-10T03:19:27.749Z,4.87
2018-09-10T03:21:56.781Z,5.50
2018-09-10T03:24:25.749Z,5.20
2018-09-10T03:26:54.688Z,5.20
2018-09-10T03:29:23.638Z,5.40
2018-09-10T03:31:52.676Z,5.67
2018-09-10T03:34:21.626Z,5.20
2018-09-10T03:36:50.622Z,5.63
2018-09-10T03:39:19.574Z,4.87
2018-09-10T03:41:48.494Z,5.03
2018-09-10T03:44:17.449Z,5.93
2018-09-10T03:46:46.383Z,6.10
2018-09-10T03:49:15.341Z,5.60
2018-09-10T03:51:44.438Z,5.87
2018-09-10T03:54:13.350Z,6.93
2018-09-10T03:56:42.303Z,5.93
2018-09-10T03:59:11.572Z,6.40
2018-09-10T04:01:40.773Z,5.80
2018-09-10T04:04:09.701Z,6.70
2018-09-10T04:06:38.677Z,6.87
2018-09-10T04:09:08.157Z,7.17
2018-09-10T04:11:37.095Z,6.50
2018-09-10T04:14:06.024Z,7.10
2018-09-10T04:16:34.979Z,7.70
2018-09-10T04:19:03.930Z,8.03
2018-09-10T04:21:32.870Z,7.40
2018-09-10T04:24:01.806Z,7.53
2018-09-10T04:26:30.770Z,8.00
2018-09-10T04:28:59.778Z,8.30
2018-09-10T04:31:28.727Z,8.50
2018-09-10T04:33:57.717Z,8.87
2018-09-10T04:36:26.694Z,9.30
2018-09-10T04:38:55.667Z,9.37
2018-09-10T04:41:24.626Z,9.13
2018-09-10T04:43:53.571Z,9.80
2018-09-10T04:46:22.530Z,9.80
2018-09-10T04:48:51.502Z,10.23
2018-09-10T04:51:20.466Z,10.73
2018-09-10T04:53:49.422Z,11.10
2018-09-10T04:56:18.376Z,11.87
2018-09-10T04:58:47.330Z,11.37
2018-09-10T05:01:16.495Z,11.27
2018-09-10T05:03:46.061Z,12.20
2018-09-10T05:06:15.193Z,11.63
2018-09-10T05:08:45.236Z,12.57
2018-09-10T05:11:14.357Z,12.70
2018-09-10T05:13:43.366Z,13.37
2018-09-10T05:16:12.382Z,12.70
2018-09-10T05:18:41.442Z,13.20
2018-09-10T05:21:10.461Z,13.60
2018-09-10T05:23:39.455Z,14.60
2018-09-10T05:26:08.425Z,14.37
2018-09-10T05:28:37.398Z,14.10
2018-09-10T05:31:06.386Z,15.30
2018-09-10T05:33:35.493Z,15.53
2018-09-10T05:36:04.443Z,15.07
2018-09-10T05:38:33.381Z,16.37
2018-09-10T05:41:02.557Z,15.40
2018-09-10T05:43:31.607Z,15.60
2018-09-10T05:46:00.552Z,16.20
2018-09-10T05:48:29.754Z,16.93
2018-09-10T05:50:58.701Z,14.87
2018-09-10T05:53:27.624Z,15.93
2018-09-10T05:55:56.614Z,15.93
2018-09-10T05:58:25.525Z,16.63
2018-09-10T06:00:54.518Z,16.00
2018-09-10T06:03:23.537Z,18.33
2018-09-10T06:05:52.522Z,16.97
2018-09-10T06:08:21.520Z,18.50
2018-09-10T06:10:50.568Z,17.30
2018-09-10T06:13:19.621Z,17.40
2018-09-10T06:15:48.783Z,17.23
2018-09-10T06:18:17.844Z,16.80
2018-09-10T06:20:47.016Z,17.33
2018-09-10T06:23:16.134Z,17.30
2018-09-10T06:25:45.332Z,16.90
2018-09-10T06:28:15.446Z,18.20
2018-09-10T06:30:44.498Z,19.30
2018-09-10T06:33:13.433Z,18.80
2018-09-10T06:35:42.398Z,18.70
2018-09-10T06:38:11.406Z,19.10
2018-09-10T06:40:40.614Z,19.60
2018-09-10T06:43:09.546Z,19.70
2018-09-10T06:45:38.649Z,19.57
2018-09-10T06:48:07.661Z,19.63
2018-09-10T06:50:36.606Z,21.30
2018-09-10T06:53:06.582Z,19.67
2018-09-10T06:55:35.750Z,19.87
2018-09-10T06:58:04.753Z,20.17
2018-09-10T07:00:33.786Z,21.93
2018-09-10T07:03:02.742Z,18.60
2018-09-10T07:05:31.776Z,21.90
2018-09-10T07:08:00.766Z,21.63
2018-09-10T07:10:29.687Z,20.80
2018-09-10T07:12:58.756Z,22.83
2018-09-10T07:15:27.701Z,21.90
2018-09-10T07:17:56.950Z,22.13
2018-09-10T07:20:25.890Z,21.43
2018-09-10T07:22:54.866Z,21.90
2018-09-10T07:25:24.499Z,22.77
2018-09-10T07:27:53.420Z,21.97
2018-09-10T07:30:22.423Z,21.80
2018-09-10T07:32:51.406Z,21.63
2018-09-10T07:35:20.371Z,21.13
2018-09-10T07:37:49.415Z,23.37
2018-09-10T07:40:18.378Z,22.03
2018-09-10T07:42:47.297Z,20.80
2018-09-10T07:45:16.272Z,20.77
2018-09-10T07:47:45.214Z,20.13
2018-09-10T07:50:14.142Z,23.50
2018-09-10T07:52:43.107Z,21.30
2018-09-10T07:55:12.109Z,22.83
2018-09-10T07:57:41.314Z,21.50
2018-09-10T08:00:10.255Z,20.87
2018-09-10T08:02:39.183Z,19.17
2018-09-10T08:05:08.160Z,21.43
2018-09-10T08:07:37.094Z,18.97
2018-09-10T08:10:06.066Z,23.00
2018-09-10T08:12:34.998Z,20.57
2018-09-10T08:15:03.962Z,21.00
2018-09-10T08:17:32.918Z,20.00
2018-09-10T08:20:01.872Z,20.43
2018-09-10T08:22:30.812Z,20.47
2018-09-10T08:24:59.753Z,18.93
2018-09-10T08:27:28.683Z,20.30
2018-09-10T08:29:57.637Z,19.67
2018-09-10T08:32:26.570Z,19.60
2018-09-10T08:34:55.582Z,18.47
2018-09-10T08:37:24.527Z,18.60
2018-09-10T08:39:53.481Z,19.20
2018-09-10T08:42:22.448Z,18.60
2018-09-10T08:44:51.401Z,17.87
2018-09-10T08:47:20.342Z,17.90
2018-09-10T08:49:49.300Z,17.13
2018-09-10T08:52:19.085Z,18.83
2018-09-10T08:54:48.506Z,17.10
2018-09-10T08:57:16.971Z,16.20
2018-09-10T08:59:46.018Z,15.23
2018-09-10T09:02:14.970Z,15.50
2018-09-10T09:04:43.902Z,15.47
2018-09-10T09:07:12.877Z,15.27
2018-09-10T09:09:41.869Z,13.93
2018-09-10T09:12:10.825Z,14.17
2018-09-10T09:14:39.765Z,15.13
2018-09-10T09:17:08.704Z,14.70
2018-09-10T09:19:37.631Z,14.50
2018-09-10T09:22:06.583Z,15.00
2018-09-10T09:24:35.511Z,14.13
2018-09-10T09:27:04.455Z,14.43
2018-09-10T09:29:33.464Z,14.60
2018-09-10T09:32:02.368Z,14.30
2018-09-10T09:34:37.753Z,13.97
2018-09-10T09:37:12.130Z,14.57
2018-09-10T09:39:46.514Z,13.37
2018-09-10T09:42:20.754Z,14.10
2018-09-10T09:44:55.051Z,14.30
2018-09-10T09:47:24.027Z,12.90
2018-09-10T09:49:52.955Z,14.20
2018-09-10T09:52:21.920Z,14.07
2018-09-10T09:54:50.850Z,15.30
2018-09-10T09:57:19.811Z,14.13
2018-09-10T09:59:48.820Z,13.60
2018-09-10T10:02:24.803Z,13.80
2018-09-10T10:04:53.773Z,14.53
2018-09-10T10:07:22.744Z,14.63
2018-09-10T10:09:51.707Z,14.17
2018-09-10T10:12:20.696Z,13.10
2018-09-10T10:14:49.610Z,13.67
2018-09-10T10:17:20.281Z,13.60
2018-09-10T10:19:49.887Z,12.80
2018-09-10T10:22:18.814Z,11.20
2018-09-10T10:24:47.783Z,13.40
2018-09-10T10:27:16.732Z,12.73
2018-09-10T10:29:45.770Z,10.43
2018-09-10T10:32:14.710Z,9.47
2018-09-10T10:34:43.694Z,9.87
2018-09-10T10:37:12.626Z,9.13
2018-09-10T10:39:41.589Z,8.40
2018-09-10T10:42:11.537Z,6.73
2018-09-10T10:44:40.456Z,7.93
2018-09-10T10:47:09.417Z,7.17
2018-09-10T10:49:38.622Z,6.70
2018-09-10T10:52:07.595Z,7.97
2018-09-10T10:54:36.526Z,7.70
2018-09-10T10:57:05.490Z,7.20
2018-09-10T10:59:34.413Z,7.57
2018-09-10T11:02:03.396Z,6.83
2018-09-10T11:04:32.362Z,6.20
2018-09-10T11:07:01.286Z,5.63
2018-09-10T11:09:30.223Z,4.77
2018-09-10T11:11:59.182Z,4.80
2018-09-10T11:14:28.143Z,5.30
2018-09-10T11:16:57.064Z,4.80
2018-09-10T11:19:25.991Z,5.83
2018-09-10T11:21:54.926Z,5.40
2018-09-10T11:24:23.874Z,4.87
2018-09-10T11:26:52.809Z,5.10
2018-09-10T11:29:22.982Z,4.20
2018-09-10T11:31:51.900Z,3.87
2018-09-10T11:34:20.827Z,4.70
2018-09-10T11:36:49.797Z,4.80
2018-09-10T11:39:18.722Z,4.30
2018-09-10T11:41:47.643Z,6.20
2018-09-10T11:44:16.597Z,5.63
2018-09-10T11:46:45.555Z,5.30
2018-09-10T11:49:15.552Z,5.50
2018-09-10T11:51:45.511Z,5.17
2018-09-10T11:54:14.450Z,5.20
2018-09-10T11:56:44.412Z,5.43
2018-09-10T11:59:13.568Z,5.50
2018-09-10T12:01:42.572Z,6.00
2018-09-10T12:04:11.473Z,6.10
2018-09-10T12:06:40.504Z,5.00
2018-09-10T12:09:10.309Z,6.37
2018-09-10T12:11:39.325Z,5.60
2018-09-10T12:14:08.267Z,5.53
2018-09-10T12:16:37.398Z,6.93
2018-09-10T12:19:06.434Z,6.60
2018-09-10T12:21:35.374Z,7.50
2018-09-10T12:24:04.238Z,7.40
2018-09-10T12:26:33.221Z,7.23
2018-09-10T12:29:02.366Z,7.33
2018-09-10T12:31:31.367Z,7.80
2018-09-10T12:34:00.291Z,6.60
2018-09-10T12:36:29.198Z,6.83
2018-09-10T12:38:58.137Z,7.10
2018-09-10T12:41:27.061Z,6.50
2018-09-10T12:43:56.066Z,6.20
2018-09-10T12:46:25.034Z,6.47
2018-09-10T12:48:53.940Z,6.40
2018-09-10T12:51:22.899Z,5.67
2018-09-10T12:53:51.829Z,5.50
2018-09-10T12:56:20.782Z,5.30
2018-09-10T12:58:49.748Z,4.33
2018-09-10T13:01:18.706Z,4.33
2018-09-10T13:03:47.660Z,4.60
2018-09-10T13:06:16.610Z,3.93
2018-09-10T13:08:45.527Z,3.63
2018-09-10T13:11:14.473Z,5.80
2018-09-10T13:13:43.485Z,6.37
2018-09-10T13:16:12.458Z,6.30
2018-09-10T13:18:41.368Z,6.60
2018-09-10T13:21:10.318Z,5.97
2018-09-10T13:23:39.231Z,4.93
2018-09-10T13:26:08.222Z,4.83
2018-09-10T13:28:37.232Z,5.60
2018-09-10T13:31:06.349Z,5.00
2018-09-10T13:33:35.358Z,5.37
2018-09-10T13:36:04.553Z,5.10
2018-09-10T13:38:33.502Z,5.00
2018-09-10T13:41:02.433Z,4.60
2018-09-10T13:43:31.379Z,4.97
2018-09-10T13:46:00.415Z,4.53
2018-09-10T13:48:29.366Z,4.67
2018-09-10T13:50:58.649Z,4.30
2018-09-10T13:53:27.607Z,3.77
2018-09-10T13:55:56.550Z,4.37
2018-09-10T13:58:25.491Z,4.73
2018-09-10T14:00:54.487Z,4.50
2018-09-10T14:03:23.430Z,4.87
2018-09-10T14:05:52.392Z,4.60
2018-09-10T14:08:21.347Z,5.60
2018-09-10T14:10:50.305Z,4.93
2018-09-10T14:13:19.283Z,4.40
2018-09-10T14:15:48.263Z,5.20
2018-09-10T14:18:17.371Z,4.60
2018-09-10T14:20:46.210Z,5.80
2018-09-10T14:23:15.132Z,4.70
2018-09-10T14:25:44.086Z,5.87
2018-09-10T14:28:13.050Z,5.17
2018-09-10T14:30:42.043Z,5.97
2018-09-10T14:33:10.979Z,5.73
2018-09-10T14:35:39.933Z,6.00
2018-09-10T14:38:08.854Z,7.27
2018-09-10T14:40:37.779Z,6.80
2018-09-10T14:43:06.824Z,6.90
2018-09-10T14:45:35.945Z,6.20
2018-09-10T14:48:04.929Z,6.37
2018-09-10T14:50:33.906Z,7.70
2018-09-10T14:53:02.816Z,6.57
2018-09-10T14:55:31.749Z,6.63
2018-09-10T14:58:00.674Z,7.47
2018-09-10T15:00:29.614Z,7.77
2018-09-10T15:02:58.541Z,7.07
2018-09-10T15:05:27.477Z,8.30
2018-09-10T15:07:56.569Z,8.03
2018-09-10T15:10:25.501Z,8.70
2018-09-10T15:12:54.440Z,9.00
2018-09-10T15:15:23.366Z,8.73
2018-09-10T15:17:52.314Z,8.60
2018-09-10T15:20:21.261Z,8.80
2018-09-10T15:22:50.198Z,9.10
2018-09-10T15:25:19.166Z,8.63
2018-09-10T15:27:48.160Z,9.27
2018-09-10T15:30:17.149Z,9.07
2018-09-10T15:32:46.074Z,7.90
2018-09-10T15:35:15.041Z,9.47
2018-09-10T15:37:43.994Z,8.50
2018-09-10T15:40:12.994Z,10.10
2018-09-10T15:42:42.026Z,10.97
2018-09-10T15:45:11.074Z,9.43
2018-09-10T15:47:40.019Z,10.17
2018-09-10T15:50:08.983Z,8.73
2018-09-10T15:52:38.611Z,8.63
2018-09-10T15:55:07.554Z,8.93
2018-09-10T15:57:36.586Z,10.13
2018-09-10T16:00:05.469Z,9.17
2018-09-10T16:02:34.393Z,9.90
2018-09-10T16:05:03.334Z,9.33
2018-09-10T16:07:32.292Z,10.10
2018-09-10T16:10:01.236Z,9.40
2018-09-10T16:12:30.161Z,11.37
2018-09-10T16:14:59.136Z,9.57
2018-09-10T16:17:28.041Z,9.17
2018-09-10T16:19:57.022Z,11.03
2018-09-10T16:22:25.950Z,9.80
2018-09-10T16:24:54.879Z,9.93
2018-09-10T16:27:23.896Z,10.77
2018-09-10T16:29:52.797Z,9.93
2018-09-10T16:32:21.741Z,9.53
2018-09-10T16:34:50.728Z,9.63
2018-09-10T16:37:19.657Z,9.37
2018-09-10T16:39:48.570Z,9.77
2018-09-10T16:42:17.590Z,9.37
2018-09-10T16:44:46.570Z,10.80
2018-09-10T16:47:15.542Z,10.13
2018-09-10T16:49:44.515Z,9.30
2018-09-10T16:52:13.479Z,8.87
2018-09-10T16:54:42.501Z,9.10
2018-09-10T16:57:11.379Z,8.40
2018-09-10T16:59:40.322Z,9.67
2018-09-10T17:02:09.277Z,9.97
2018-09-10T17:04:38.206Z,8.83
2018-09-10T17:07:07.137Z,9.03
2018-09-10T17:09:37.078Z,8.80
2018-09-10T17:12:06.032Z,9.60
2018-09-10T17:14:36.881Z,9.77
2018-09-10T17:17:06.718Z,9.00
2018-09-10T17:19:35.963Z,9.50
2018-09-10T17:22:05.498Z,9.27
2018-09-10T17:24:34.448Z,8.97
2018-09-10T17:27:03.411Z,9.80
2018-09-10T17:29:32.373Z,10.43
2018-09-10T17:32:01.446Z,8.70
2018-09-10T17:34:30.405Z,9.13
2018-09-10T17:36:59.381Z,9.27
2018-09-10T17:39:28.336Z,8.97
2018-09-10T17:41:57.266Z,8.40
2018-09-10T17:44:26.218Z,8.40
2018-09-10T17:46:55.282Z,8.50
2018-09-10T17:49:24.167Z,7.53
2018-09-10T17:51:53.147Z,9.20
2018-09-10T17:54:22.119Z,8.40
2018-09-10T17:56:51.030Z,8.00
2018-09-10T17:59:19.989Z,8.50
2018-09-10T18:01:48.926Z,7.50
2018-09-10T18:04:17.895Z,8.27
2018-09-10T18:06:46.854Z,7.47
2018-09-10T18:09:15.779Z,7.80
2018-09-10T18:11:44.776Z,8.50
2018-09-10T18:14:13.717Z,7.47
2018-09-10T18:16:42.671Z,8.70
2018-09-10T18:19:11.599Z,8.50
2018-09-10T18:21:40.542Z,7.93
2018-09-10T18:24:09.490Z,7.70
2018-09-10T18:26:38.433Z,7.70
2018-09-10T18:29:07.433Z,9.20
2018-09-10T18:31:37.383Z,8.77
2018-09-10T18:34:06.411Z,9.07
2018-09-10T18:36:35.410Z,9.20
2018-09-10T18:39:07.097Z,9.40
2018-09-10T18:41:36.050Z,7.90
2018-09-10T18:44:04.971Z,9.33
2018-09-10T18:46:33.977Z,8.57
2018-09-10T18:49:03.028Z,8.87
2018-09-10T18:51:31.876Z,7.60
2018-09-10T18:54:00.835Z,7.80
2018-09-10T18:56:29.783Z,7.83
2018-09-10T18:58:58.733Z,9.20
2018-09-10T19:01:27.783Z,9.60
2018-09-10T19:03:56.646Z,8.83
2018-09-10T19:06:25.610Z,8.37
2018-09-10T19:08:54.546Z,8.70
2018-09-10T19:11:23.487Z,8.60
2018-09-10T19:13:52.437Z,8.90
2018-09-10T19:16:21.371Z,7.97
2018-09-10T19:18:50.306Z,8.03
2018-09-10T19:21:19.226Z,9.00
2018-09-10T19:23:48.166Z,9.60
2018-09-10T19:26:17.320Z,9.10
2018-09-10T19:28:46.269Z,8.73
2018-09-10T19:31:15.254Z,9.30
2018-09-10T19:33:44.202Z,9.20
2018-09-10T19:36:13.152Z,9.57
2018-09-10T19:38:42.138Z,9.50
2018-09-10T19:41:11.117Z,9.17
2018-09-10T19:43:40.076Z,10.30
2018-09-10T19:46:09.107Z,10.47
2018-09-10T19:48:38.075Z,10.20
2018-09-10T19:51:07.001Z,9.63
2018-09-10T19:53:35.959Z,9.43
2018-09-10T19:56:04.899Z,10.80
2018-09-10T19:58:33.821Z,11.80
2018-09-10T20:01:02.789Z,11.83
2018-09-10T20:03:31.722Z,11.20
2018-09-10T20:06:00.682Z,10.20
2018-09-10T20:08:29.610Z,11.17
2018-09-10T20:10:58.523Z,9.73
2018-09-10T20:13:27.506Z,11.23
2018-09-10T20:15:56.430Z,10.73
2018-09-10T20:18:25.377Z,11.80
2018-09-10T20:20:54.340Z,11.70
2018-09-10T20:23:23.303Z,11.93
2018-09-10T20:25:52.261Z,10.30
2018-09-10T20:28:21.369Z,9.30
2018-09-10T20:30:50.750Z,9.33
2018-09-10T20:33:19.835Z,8.40
2018-09-10T20:35:48.791Z,9.13
2018-09-10T20:38:17.776Z,9.07
2018-09-10T20:40:46.714Z,7.83
2018-09-10T20:43:15.649Z,9.13
2018-09-10T20:45:44.781Z,9.23
2018-09-10T20:48:13.750Z,9.30
2018-09-10T20:50:42.687Z,9.77
2018-09-10T20:53:11.687Z,9.67
2018-09-10T20:55:40.684Z,9.30
2018-09-10T20:58:10.615Z,8.57
2018-09-10T21:00:39.541Z,10.70
2018-09-10T21:03:08.500Z,9.23
2018-09-10T21:05:37.458Z,9.70
2018-09-10T21:08:06.393Z,8.93
2018-09-10T21:10:35.329Z,8.47
2018-09-10T21:13:04.289Z,8.60
2018-09-10T21:15:33.306Z,8.90
2018-09-10T21:18:02.333Z,8.20
2018-09-10T21:20:31.265Z,8.17
2018-09-10T21:23:00.202Z,8.10
2018-09-10T21:25:29.213Z,7.70
2018-09-10T21:27:58.177Z,8.90
2018-09-10T21:30:27.114Z,7.97
2018-09-10T21:32:56.061Z,8.70
2018-09-10T21:35:25.017Z,8.73
2018-09-10T21:37:53.934Z,7.97
2018-09-10T21:40:22.861Z,8.30
2018-09-10T21:42:51.875Z,10.57
2018-09-10T21:45:20.849Z,7.67
2018-09-10T21:47:49.791Z,7.70
2018-09-10T21:50:18.733Z,8.10
2018-09-10T21:52:47.671Z,7.80
2018-09-10T21:55:16.612Z,6.97
2018-09-10T21:57:45.509Z,8.43
2018-09-10T22:00:14.720Z,8.77
2018-09-10T22:02:43.708Z,7.67
2018-09-10T22:05:12.646Z,7.50
2018-09-10T22:07:41.605Z,7.50
2018-09-10T22:10:10.624Z,8.50
2018-09-10T22:12:39.478Z,7.47
2018-09-10T22:15:08.591Z,8.60
2018-09-10T22:17:37.577Z,8.10
2018-09-10T22:20:06.529Z,8.07
2018-09-10T22:22:35.618Z,8.23
2018-09-10T22:25:04.676Z,9.27
2018-09-10T22:27:33.618Z,9.40
2018-09-10T22:30:02.567Z,8.87
2018-09-10T22:32:31.502Z,9.33
2018-09-10T22:35:00.453Z,8.90
2018-09-10T22:37:29.384Z,9.20
2018-09-10T22:39:58.417Z,8.27
2018-09-10T22:42:27.341Z,8.97
2018-09-10T22:44:56.378Z,9.80
2018-09-10T22:47:25.351Z,8.00
2018-09-10T22:49:54.265Z,9.47
2018-09-10T22:52:23.194Z,8.53
2018-09-10T22:54:52.159Z,8.77
2018-09-10T22:57:21.080Z,9.20
2018-09-10T22:59:50.042Z,9.50
2018-09-10T23:02:19.075Z,8.53
2018-09-10T23:04:47.976Z,8.63
2018-09-10T23:07:17.017Z,10.20
2018-09-10T23:09:45.957Z,9.13
2018-09-10T23:12:15.050Z,10.13
2018-09-10T23:14:44.037Z,10.07
2018-09-10T23:17:12.978Z,10.23
2018-09-10T23:19:41.982Z,9.80
2018-09-10T23:22:10.969Z,11.10
2018-09-10T23:24:39.900Z,11.80
2018-09-10T23:27:09.151Z,13.27
2018-09-10T23:29:38.154Z,13.00
2018-09-10T23:32:07.171Z,13.40
2018-09-10T23:34:36.131Z,13.10
2018-09-10T23:37:05.157Z,12.93
2018-09-10T23:39:34.104Z,13.70
2018-09-10T23:42:03.031Z,13.03
2018-09-10T23:44:32.017Z,12.57
2018-09-10T23:47:01.023Z,12.60
2018-09-10T23:49:30.018Z,13.70
2018-09-10T23:51:58.974Z,13.70
2018-09-10T23:54:28.014Z,13.60
2018-09-10T23:56:57.010Z,15.60
2018-09-10T23:59:25.953Z,13.93
